KSLK/SLK METAR and TAF weather

Enter ICAO airport designator
Station Type Date Time Source
KSLK METAR 2022/05/26 03:51 UTC NOAA

KSLK 260351Z AUTO 00000KT 10SM CLR 12/09 A3025 RMK AO2 SLP241 T01170089


Station Type Date Time Source
KSLK Decoded METAR 2022/05/26 03:51 UTC NOAA

ADIRONDACK REGIONAL AIRPORT, NY, United States (KSLK) 44-24N 074-12W 498M
May 25, 2022 - 11:51 PM EDT / 2022.05.26 0351 UTC
Wind: Calm:0
Visibility: 10 mile(s):0
Sky conditions: clear
Temperature: 53.1 F (11.7 C)
Dew Point: 48.0 F (8.9 C)
Relative Humidity: 82%
Pressure (altimeter): 30.25 in. Hg (1024 hPa)
ob: KSLK 260351Z AUTO 00000KT 10SM CLR 12/09 A3025 RMK AO2 SLP241 T01170089
cycle: 4

Station Type Date Time Source
KSLK TAF 2022/05/25 18:22 UTC NOAA

TAF KSLK 251720Z 2518/2618 VRB04KT P6SM FEW050
FM260200 00000KT P6SM BKN120
FM260800 19004KT P6SM OVC100
FM261200 19008KT P6SM BKN090 WS020/20040KT
FM261600 20012G20KT P6SM SCT070

Example: see airport list